Bridgeport, CT (06699)

3:08 AM EST on March 04, 2015 (GMT -0500)
Nichols Elementary School | Change Station
CLOSE
Current Station
Personal Weather Station
Location: Stratford, CT
Elevation: 108 ft
Nearby Weather Stations
Active Advisory: Winter Storm Watch Active Notice: Record Report

Elev 108 ft 41.20 °N, 73.14 °W | Updated 1 minute ago

Light Rain
Light Rain
34.2 °F
Feels Like 34 °F
N
2.0
Wind Variable Wind from SW
Gusts 3.0 mph

Today
High -- | Low -- °F
--% Chance of Precip.
Yesterday
High -- | Low -- °F
Precip. -- in
6:22 AM 5:46 PM
Waxing Gibbous, 98% visible
Pressure 29.76 in
Visibility 10.0 miles
Clouds Overcast 1100 ft
Windchill 34 °F
Dew Point 32 °F
Humidity 92%
Rainfall 0.05 in
Snow Depth Not available.
UV 0.0 out of 12
Pollen .50 out of 12
Air Quality Not available.
Flu Activity Not available.
METAR KBDR 040752Z AUTO 23008KT 10SM -RA OVC011 01/00 A2976 RMK AO2 RAB02UPB14E41 SLP077 P0000 T00060000

More Conditions Fewer Conditions

Pressure 29.76 in
Visibility 10.0 miles
Clouds Overcast 1100 ft
Windchill 34 °F
Dew Point 32 °F
Humidity 92%
Rainfall 0.05 in
Snow Depth Not available.
UV 0.0 out of 12
Pollen .50 out of 12
Air Quality Not available.
Flu Activity Not available.
METAR KBDR 040752Z AUTO 23008KT 10SM -RA OVC011 01/00 A2976 RMK AO2 RAB02UPB14E41 SLP077 P0000 T00060000

More Conditions Fewer Conditions

10-Day Weather Forecast

Almanac

Astronomy

Mar. 04, 2015 Rise Set
Actual Time
Civil Twilight
Nautical Twilight
Astronomical Twilight
Moon
Length of Visible Light
Length of Day
Tomorrow will be .
, % of the Moon is Illuminated

Today's Extremes

State Highs State Lows

Community

WunderPhotos

Upload Photos

1,802,416 photos uploaded!

WunderBlogs® & News

Nearby

Air Quality

  Air Quality AQ Index Pollutant
Not available.

Snow Depth

Station Depth Elevation

Earthquake Activity

City Distance Mag. Time & Date
Minimum magnitude displayed is 2.5.

Coastal Water Temperatures

Place Temperature

Nearby Weather Stations

Winter Storm Watch
Statement as of 2:22 AM EST on March 04, 2015

... Winter Storm Watch remains in effect from this evening through
Thursday evening...
... Winter Weather Advisory is cancelled...

The National Weather Service in New York has cancelled the Winter
Weather Advisory. Temperatures in southern Connecticut have risen
above freezing allowing any remaining precipitation to fall as
plain rain.

* Locations... southern Connecticut.

* Hazard types... heavy snow.

* Accumulations... snow accumulation of 4 to 8 inches... along
with around a trace of ice.

* Timing... snow develops late Wednesday night and continues
through Thursday afternoon.

* Impacts... hazardous travel conditions are expected Wednesday
night and Thursday due to greatly reduced visibilities and
significant snow accumulations.

Precautionary/preparedness actions...

A Winter Storm Watch means there is a potential for significant
snow... sleet... or ice accumulations that may impact travel.
Continue to monitor the latest forecasts.